Jones - western half: Past 24 Hour Conditions

 

Cape Dorset Airport

01:00 AM EDT 26 October 2014
This table is a summary of hourly weather conditions for the past 24 hours.
Date / Time
(EDT)
Wind(knots) Conditions Visibility(km) Pressure(kPa) Air tempC) Relative humidity(%) Dew pointC) Wind Chill
26 October 2014
1:00 NE 14 gust 20 Mostly Cloudy 16 101.3 -8 85 -10 -17
0:00 NE 15 gust 20 Mostly Cloudy 16 101.4 -8 84 -10 -17
25 October 2014
23:00 ENE 15 Mostly Cloudy 16 101.4 -8 84 -10 -17
22:00 NE 17 Cloudy 16 101.4 -9 87 -11 -18
21:00 NE 18 Partly Cloudy 16 101.4 -10 88 -11 -20
20:00 NE 17 Partly Cloudy 16 101.5 -10 89 -11 -20
19:00 ENE 15 gust 20 Partly Cloudy 16 101.5 -9 88 -11 -18
18:00 NE 17 gust 23 Mostly Cloudy 16 101.5 -9 88 -11 -19
17:00 NE 15 gust 22 Cloudy 16 101.5 -9 90 -11 -18
16:00 NE 17 gust 22 Mostly Cloudy 16 101.5 -9 89 -11 -18
15:00 NE 17 Mostly Cloudy 16 101.5 -8 89 -10 -18
14:00 ENE 21 gust 27 Cloudy 16 101.5 -7 82 -10 -17
13:00 ENE 21 gust 27 Cloudy 16 101.5 -7 84 -10 -17
12:00 ENE 22 gust 29 Cloudy 16 101.5 -7 86 -9 -17
11:00 ENE 24 gust 31 Cloudy 16 101.5 -7 84 -10 -18
10:00 ENE 22 gust 30 Cloudy 16 101.6 -7 88 -9 -17
9:00 E 24 gust 31 Cloudy 16 101.6 -8 86 -10 -19
8:00 E 26 gust 33 Cloudy 16 101.6 -8 83 -10 -19
7:00 E 29 Cloudy 16 101.7 -8 80 -11 -19
6:00 ENE 26 gust 31 Cloudy 16 101.7 -8 81 -10 -18
5:00 E 24 gust 30 Cloudy 16 101.8 -7 77 -10 -17
4:00 ENE 24 gust 29 Cloudy 16 101.8 -7 78 -10 -17
3:00 E 24 gust 29 Cloudy 16 101.9 -7 76 -10 -17
2:00 E 20 gust 27 Cloudy 16 101.9 -6 76 -10 -15
1:00 E 16 gust 29 Cloudy 16 102.0 -6 78 -9 -14
 
Map of Arctic - Eastern Arctic marine weather areas Baker Lake Airport Chesterfield Inlet Airport Coral Harbour Airport Gjoa Haven Airport Kugaaruk Airport Rankin Inlet Airport Shepherd Bay Airport Whale Cove Airport Arctic Bay Brevoort Island Qikiqtarjuaq Airport Cape Dorset Airport Cape Dyer Cape Hooper Clyde Airport Grise Fiord Airport Hall Beach Airport Igloolik Airport Iqaluit Airport Longstaff Bluff Pangnirtung Airport Pond Inlet Airport Repulse Bay Airport Resolute Airport Resolution Island Rowley Island Airport Taloyoak Airport Wager Bay Akulivik Airport Ivujivik Airport Puvirnituq Airport Kangiqsujuaq Airport Kangirsuk Airport Quaqtaq Airport Tasiujaq Airport Cape Kakkiviak Cape Kiglapait Nain Airport Saglek Cape Mercy Kimmirut Airport Aupaluk Airport Salluit Airport Kangiqsualujjuaq Airport Fort Ross
Legend: buoyBuoy land stationLand Station